Impacts METAR Board INFO
IDs:

KIAH - Houston/Bush Intl, TX, US

Updated at: 2052 UTC 20 Jan 2018
Potential Impact None Slight Moderate High
Time20/08Z 20/09Z 20/10Z 20/11Z 20/12Z 20/13Z 20/14Z 20/15Z 20/16Z 20/17Z 20/18Z 20/19Z 20/20Z
VIS0.25 0.25 0.25 0.25 0.25 0.13 0 0 0 3 9 10 7
CIG2 2 2 2 2 2 1 2 3 24 25 15 12
CoverOVCOVXOVXOVXOVXOVXOVXOVXOVCBKNBKNOVCOVC
FltCatLIFRLIFRLIFRLIFRLIFRLIFRLIFRLIFRLIFRMVFRMVFRMVFRMVFR
WXBRRA FGFGFGFGFG-RA FGFGBRBR-----RA
WDir1200100801101001501101501501401400
WSpd4 0 4 3 4 4 4 4 6 9 8 7 0
WGst-- -- -- -- -- -- -- -- -- -- -- -- --
Raw hourly METARs
KIAH 200753Z 12004KT 1/4SM BR OVC002 11/11 A3011 RMK AO2 SFC VIS 3/4 SLP196 T01110111
KIAH 200853Z 00000KT 1/4SM RA FG VV002 12/12 A3011 RMK AO2 SFC VIS 1/2 RAB0758E11B40 SLP196 P0004 60005 T01170117 55011
KIAH 200953Z 10004KT 1/4SM FG VV002 12/12 A3009 RMK AO2 RAE02 SLP191 P0000 T01170117
KIAH 201053Z 08003KT 1/4SM FG VV002 12/12 A3008 RMK AO2 RAB08E17 SLP187 P0000 T01170117
KIAH 201153Z 11004KT 1/4SM FG VV002 12/12 A3008 RMK AO2 SLP186 60005 70007 T01170117 10117 20111 56010
KIAH 201253Z 10004KT 1/8SM FG VV002 12/12 A3008 RMK AO2 SLP187 T01220122
KIAH 201353Z 15004KT 0SM -RA FG VV001 13/13 A3009 RMK AO2 SFC VIS 1/8 RAB14E24B44 SLP190 P0001 T01280128
KIAH 201505Z 11004KT 0SM FG VV002 14/14 A3011 RMK AO2 SFC VIS 1/4 RAE01 P0000 T01390139
KIAH 201553Z 15006KT 0SM BR OVC003 16/16 A3012 RMK AO2 SFC VIS 1 RAE01 SLP199 P0000 T01560156
KIAH 201653Z 15009KT 3SM BR SCT006 BKN024 BKN033 17/17 A3011 RMK AO2 SFC VIS 5 SLP197 T01670167
KIAH 201753Z 14008KT 9SM SCT011 BKN025 BKN042 19/17 A3009 RMK AO2 SLP188 60001 T01890172 10189 20117 58006
KIAH 201853Z 14007KT 10SM BKN015 OVC021 19/18 A3006 RMK AO2 RAB10E24 SLP179 P0000 T01940183
KIAH 201953Z 00000KT 7SM -RA BKN012 OVC021 20/18 A3003 RMK AO2 RAB10E19B37 SLP168 P0000 T02000183